Time;durP1;ratioP1;P1;durP2;ratioP2;P2;SDS_P1;SDS_P2;PMS_P1;PMS_P2;Temp;Humidity;BMP_temperature;BMP_pressure;BME280_temperature;BME280_humidity;BME280_pressure;Samples;Min_cycle;Max_cycle;Signal;HPM_P1;HPM_P2
2022/12/15 06:03:35;;;;;;;18.85;9.88;;;;;;;;;;5108474;27;20438;-66
2022/12/15 06:06:01;;;;;;;20.10;10.55;;;;;;;;;;5108492;28;20035;-59
2022/12/15 06:08:32;;;;;;;18.63;10.68;;;;;;;;;;5112774;28;20107;-59
2022/12/15 06:10:58;;;;;;;21.20;10.73;;;;;;;;;;5106881;27;20156;-61
2022/12/15 06:13:25;;;;;;;18.85;10.63;;;;;;;;;;5107121;28;20040;-63
2022/12/15 06:15:58;;;;;;;21.50;10.93;;;;;;;;;;5105419;28;20052;-64
2022/12/15 06:18:25;;;;;;;22.67;12.88;;;;;;;;;;5107358;28;20032;-59
2022/12/15 06:21:01;;;;;;;21.35;12.02;;;;;;;;;;5107905;28;20055;-68
2022/12/15 06:23:28;;;;;;;28.55;13.43;;;;;;;;;;5107468;28;20554;-62
2022/12/15 06:25:54;;;;;;;25.15;13.00;;;;;;;;;;5108020;28;20020;-59
2022/12/15 06:28:22;;;;;;;25.77;13.93;;;;;;;;;;5107820;28;20042;-59
2022/12/15 06:30:52;;;;;;;25.75;13.65;;;;;;;;;;5106077;28;20093;-67
2022/12/15 06:33:18;;;;;;;26.58;14.20;;;;;;;;;;5107015;28;20787;-61
2022/12/15 06:35:44;;;;;;;30.48;15.32;;;;;;;;;;5106964;28;20677;-63
2022/12/15 06:38:11;;;;;;;32.10;16.35;;;;;;;;;;5106770;28;20016;-59
2022/12/15 06:40:37;;;;;;;31.38;15.70;;;;;;;;;;5105902;28;20015;-59
2022/12/15 06:43:03;;;;;;;31.23;15.88;;;;;;;;;;5106640;28;20040;-61
2022/12/15 06:45:29;;;;;;;25.48;14.65;;;;;;;;;;5103819;28;20518;-59
2022/12/15 06:47:55;;;;;;;23.85;12.50;;;;;;;;;;5106599;28;20115;-62
2022/12/15 06:50:21;;;;;;;23.52;12.60;;;;;;;;;;5106291;28;20111;-67
2022/12/15 06:52:47;;;;;;;21.23;12.20;;;;;;;;;;5106395;28;20099;-64
2022/12/15 06:55:13;;;;;;;18.65;11.48;;;;;;;;;;5106350;28;20436;-59
2022/12/15 06:57:39;;;;;;;18.73;10.80;;;;;;;;;;5106314;28;20487;-59
2022/12/15 07:00:06;;;;;;;18.88;11.05;;;;;;;;;;5106153;28;20034;-59
2022/12/15 07:02:32;;;;;;;17.30;10.50;;;;;;;;;;5105457;28;20130;-59
2022/12/15 07:04:58;;;;;;;14.98;9.70;;;;;;;;;;5106335;28;20027;-59
2022/12/15 07:07:25;;;;;;;19.10;11.40;;;;;;;;;;5105660;28;20506;-69
2022/12/15 07:09:51;;;;;;;18.38;10.90;;;;;;;;;;5105523;28;20073;-58
2022/12/15 07:12:17;;;;;;;19.10;11.27;;;;;;;;;;5106121;28;20478;-58
2022/12/15 07:14:43;;;;;;;21.38;11.45;;;;;;;;;;5093479;28;20016;-59
2022/12/15 07:17:09;;;;;;;21.15;11.75;;;;;;;;;;5092741;28;20036;-59
2022/12/15 07:19:36;;;;;;;21.98;12.13;;;;;;;;;;5092327;28;20020;-58
2022/12/15 07:22:02;;;;;;;19.60;10.90;;;;;;;;;;5092021;28;20077;-60
2022/12/15 07:24:28;;;;;;;22.67;13.00;;;;;;;;;;5092055;28;20111;-68
2022/12/15 07:26:54;;;;;;;24.90;13.18;;;;;;;;;;5092067;28;20032;-68
2022/12/15 07:29:20;;;;;;;21.75;12.35;;;;;;;;;;5089891;28;20020;-60
2022/12/15 07:31:46;;;;;;;19.75;11.60;;;;;;;;;;5098340;28;20027;-60
2022/12/15 07:34:12;;;;;;;21.23;12.05;;;;;;;;;;5113106;28;20024;-60
2022/12/15 07:36:39;;;;;;;25.42;14.05;;;;;;;;;;5112372;28;20059;-64
2022/12/15 07:39:05;;;;;;;21.35;11.65;;;;;;;;;;5112941;28;20034;-59
2022/12/15 07:41:32;;;;;;;24.70;11.85;;;;;;;;;;5112736;28;20164;-64
2022/12/15 07:43:58;;;;;;;19.73;11.32;;;;;;;;;;5112407;28;20042;-60
2022/12/15 07:46:25;;;;;;;19.65;11.35;;;;;;;;;;5113628;28;20027;-62
2022/12/15 07:48:52;;;;;;;21.67;12.73;;;;;;;;;;5113800;28;20026;-59
2022/12/15 07:51:19;;;;;;;24.30;12.93;;;;;;;;;;5112380;28;20023;-69
2022/12/15 07:53:45;;;;;;;27.75;15.50;;;;;;;;;;5111867;28;20109;-59
2022/12/15 07:56:11;;;;;;;31.33;17.13;;;;;;;;;;5111804;28;20073;-60
2022/12/15 07:58:37;;;;;;;32.42;17.95;;;;;;;;;;5111751;28;20394;-59
2022/12/15 08:01:05;;;;;;;28.75;16.08;;;;;;;;;;5112930;28;20024;-60
2022/12/15 08:03:31;;;;;;;32.50;17.40;;;;;;;;;;5112934;28;20054;-75
2022/12/15 08:05:57;;;;;;;29.70;16.00;;;;;;;;;;5112290;28;20034;-72
2022/12/15 08:08:23;;;;;;;31.95;17.35;;;;;;;;;;5112086;28;20114;-63
2022/12/15 08:10:49;;;;;;;29.40;16.60;;;;;;;;;;5111001;28;20011;-69
2022/12/15 08:13:16;;;;;;;32.42;16.75;;;;;;;;;;5092466;28;20032;-62
2022/12/15 08:15:42;;;;;;;33.90;17.75;;;;;;;;;;5111597;28;20035;-60
2022/12/15 08:18:08;;;;;;;33.30;18.27;;;;;;;;;;5111539;28;20019;-71
2022/12/15 08:20:34;;;;;;;30.83;16.38;;;;;;;;;;5110835;28;20498;-70
2022/12/15 08:23:00;;;;;;;29.83;16.90;;;;;;;;;;5110840;28;20035;-67
2022/12/15 08:25:29;;;;;;;31.17;16.30;;;;;;;;;;5110480;28;20031;-63
2022/12/15 08:27:56;;;;;;;31.63;16.42;;;;;;;;;;5110954;28;20085;-63
2022/12/15 08:30:22;;;;;;;29.40;16.73;;;;;;;;;;5112149;28;20027;-70
2022/12/15 08:32:48;;;;;;;29.90;17.17;;;;;;;;;;5111475;28;20118;-64
2022/12/15 08:35:14;;;;;;;28.70;16.88;;;;;;;;;;5111127;28;20825;-63
2022/12/15 08:37:41;;;;;;;27.58;16.35;;;;;;;;;;5111307;28;20030;-62
2022/12/15 08:40:08;;;;;;;27.13;16.52;;;;;;;;;;5110818;28;20020;-62
2022/12/15 08:42:34;;;;;;;24.63;15.30;;;;;;;;;;5092581;28;20085;-61
2022/12/15 08:45:00;;;;;;;27.90;15.73;;;;;;;;;;5110988;28;20019;-69
2022/12/15 08:47:27;;;;;;;24.67;14.70;;;;;;;;;;5111065;28;20073;-61
2022/12/15 08:49:53;;;;;;;24.73;14.20;;;;;;;;;;5111256;28;20016;-62
2022/12/15 08:52:20;;;;;;;27.33;15.30;;;;;;;;;;5111306;28;20028;-62
2022/12/15 08:54:46;;;;;;;26.95;15.57;;;;;;;;;;5112279;28;20039;-62
2022/12/15 08:57:12;;;;;;;28.55;15.82;;;;;;;;;;5111648;28;20016;-62
2022/12/15 08:59:38;;;;;;;28.73;16.40;;;;;;;;;;5112529;28;20077;-62
2022/12/15 09:02:04;;;;;;;31.60;16.00;;;;;;;;;;5111533;28;20457;-67
2022/12/15 09:04:30;;;;;;;25.45;15.25;;;;;;;;;;5112039;28;20084;-62
2022/12/15 09:06:56;;;;;;;27.00;15.52;;;;;;;;;;5111676;28;20135;-66
2022/12/15 09:09:22;;;;;;;27.88;15.60;;;;;;;;;;5111900;28;20119;-62
2022/12/15 09:11:49;;;;;;;27.45;15.63;;;;;;;;;;5110961;28;20020;-70
2022/12/15 09:14:16;;;;;;;27.45;16.50;;;;;;;;;;5110895;28;20032;-61
2022/12/15 09:16:42;;;;;;;26.08;15.73;;;;;;;;;;5110261;28;20383;-63
2022/12/15 09:19:08;;;;;;;27.90;15.57;;;;;;;;;;5110906;28;20027;-61
2022/12/15 09:21:35;;;;;;;28.17;16.95;;;;;;;;;;5110618;28;20035;-61
2022/12/15 09:24:01;;;;;;;27.20;15.27;;;;;;;;;;5111413;28;20034;-72
2022/12/15 09:26:31;;;;;;;24.55;14.35;;;;;;;;;;5110479;28;20146;-69
2022/12/15 09:28:57;;;;;;;28.17;16.00;;;;;;;;;;5110394;28;20030;-62
2022/12/15 09:31:27;;;;;;;27.17;16.10;;;;;;;;;;5110113;28;20058;-61
2022/12/15 09:33:53;;;;;;;32.00;16.80;;;;;;;;;;5110342;28;20039;-72
2022/12/15 09:36:19;;;;;;;33.35;18.65;;;;;;;;;;5109667;28;20015;-70
2022/12/15 09:38:45;;;;;;;30.98;17.90;;;;;;;;;;5107281;28;20036;-62
2022/12/15 09:41:14;;;;;;;29.23;17.08;;;;;;;;;;5109983;28;20034;-61
2022/12/15 09:43:59;;;;;;;34.30;17.92;;;;;;;;;;5110100;28;20065;-62
2022/12/15 09:46:25;;;;;;;31.38;17.30;;;;;;;;;;5109789;28;20065;-61
2022/12/15 09:48:53;;;;;;;31.45;17.75;;;;;;;;;;5110252;28;20368;-61
2022/12/15 09:51:20;;;;;;;30.02;16.75;;;;;;;;;;5109746;28;20019;-61
2022/12/15 09:53:46;;;;;;;20.83;13.10;;;;;;;;;;5106907;28;20028;-66
2022/12/15 09:56:18;;;;;;;19.17;11.38;;;;;;;;;;5110125;28;20023;-62
2022/12/15 09:59:02;;;;;;;18.77;11.70;;;;;;;;;;5107205;28;20170;-61
2022/12/15 10:01:41;;;;;;;20.63;11.85;;;;;;;;;;5107175;28;20052;-64
2022/12/15 10:04:13;;;;;;;17.92;11.23;;;;;;;;;;5091697;28;20030;-64
2022/12/15 10:06:39;;;;;;;;;;;;;;;;;;5099785;28;20022;-63
2022/12/15 10:09:17;;;;;;;18.55;11.05;;;;;;;;;;5099500;28;19912;-61
2022/12/15 10:11:55;;;;;;;21.05;11.80;;;;;;;;;;5107294;28;20027;-64
2022/12/15 10:14:21;;;;;;;17.95;11.55;;;;;;;;;;5097506;28;20038;-61
2022/12/15 10:16:53;;;;;;;18.65;12.18;;;;;;;;;;5097542;28;20058;-62
2022/12/15 10:19:23;;;;;;;21.17;13.15;;;;;;;;;;5100202;28;20030;-61
2022/12/15 10:21:49;;;;;;;23.08;13.40;;;;;;;;;;5100283;28;20039;-61
2022/12/15 10:24:17;;;;;;;22.02;12.40;;;;;;;;;;5093322;28;20400;-61
2022/12/15 10:26:47;;;;;;;21.10;12.77;;;;;;;;;;5098400;28;20032;-65
2022/12/15 10:29:36;;;;;;;24.27;12.82;;;;;;;;;;5099282;28;20397;-61
2022/12/15 10:32:14;;;;;;;21.55;12.57;;;;;;;;;;5096850;28;20108;-61
2022/12/15 10:34:41;;;;;;;18.45;11.57;;;;;;;;;;5096975;28;20103;-61
2022/12/15 10:37:12;;;;;;;20.23;11.68;;;;;;;;;;5091962;28;20016;-61
2022/12/15 10:39:39;;;;;;;18.15;11.63;;;;;;;;;;5090501;28;20039;-61
2022/12/15 10:42:11;;;;;;;19.05;11.23;;;;;;;;;;5090114;28;20114;-62
2022/12/15 10:44:37;;;;;;;;;;;;;;;;;;5091068;28;20509;-61
2022/12/15 10:47:32;;;;;;;23.65;13.23;;;;;;;;;;5090516;28;19908;-62
2022/12/15 10:50:17;;;;;;;24.58;14.63;;;;;;;;;;5090834;28;20051;-62
2022/12/15 10:52:43;;;;;;;21.02;12.93;;;;;;;;;;5094238;28;20032;-61
2022/12/15 10:55:27;;;;;;;21.35;13.27;;;;;;;;;;5094154;28;20039;-68
2022/12/15 10:58:01;;;;;;;25.30;14.27;;;;;;;;;;5094168;28;20024;-68
2022/12/15 11:00:28;;;;;;;22.13;14.13;;;;;;;;;;5094026;28;20023;-61
2022/12/15 11:02:55;;;;;;;22.67;14.30;;;;;;;;;;5108841;28;20135;-62
2022/12/15 11:05:21;;;;;;;24.55;14.35;;;;;;;;;;5114267;28;20035;-61
2022/12/15 11:07:49;;;;;;;24.98;13.95;;;;;;;;;;5114414;28;20039;-63
2022/12/15 11:13:19;;;;;;;23.67;14.77;;;;;;;;;;5114249;28;20034;-62
2022/12/15 11:15:49;;;;;;;25.80;15.68;;;;;;;;;;5114327;28;20035;-63
2022/12/15 11:18:16;;;;;;;24.92;15.25;;;;;;;;;;5114286;28;20542;-72
2022/12/15 11:20:44;;;;;;;26.67;15.18;;;;;;;;;;5114104;28;20132;-68
2022/12/15 11:23:10;;;;;;;32.67;17.90;;;;;;;;;;5113903;28;20100;-71
2022/12/15 11:25:39;;;;;;;31.05;18.63;;;;;;;;;;5113160;28;20534;-72
2022/12/15 11:28:09;;;;;;;24.70;15.10;;;;;;;;;;5114065;28;20039;-68
2022/12/15 11:30:40;;;;;;;23.52;14.70;;;;;;;;;;5113770;28;20101;-62
2022/12/15 11:33:09;;;;;;;26.25;16.42;;;;;;;;;;5114034;28;20035;-62
2022/12/15 11:35:50;;;;;;;27.83;16.45;;;;;;;;;;5113759;28;20076;-69
2022/12/15 11:38:16;;;;;;;31.15;17.33;;;;;;;;;;5113752;28;20027;-64
2022/12/15 11:40:43;;;;;;;37.00;20.30;;;;;;;;;;5113624;28;20022;-68
2022/12/15 11:43:24;;;;;;;26.25;15.75;;;;;;;;;;5112993;28;20035;-71
2022/12/15 11:45:56;;;;;;;30.40;17.38;;;;;;;;;;5113303;28;20077;-61
2022/12/15 11:48:27;;;;;;;27.77;16.67;;;;;;;;;;5113195;28;20034;-68
2022/12/15 11:50:53;;;;;;;28.00;16.73;;;;;;;;;;5113472;28;20025;-61
2022/12/15 11:53:42;;;;;;;25.60;15.82;;;;;;;;;;5113154;28;20126;-62
2022/12/15 11:56:11;;;;;;;27.40;16.35;;;;;;;;;;5010153;28;20143;-72
2022/12/15 11:58:37;;;;;;;28.13;16.05;;;;;;;;;;4993725;28;20441;-73
2022/12/15 12:01:23;;;;;;;26.58;16.10;;;;;;;;;;5010346;28;20042;-70
2022/12/15 12:03:59;;;;;;;25.77;16.25;;;;;;;;;;5010419;28;20408;-61
2022/12/15 12:06:28;;;;;;;28.52;16.90;;;;;;;;;;5010389;28;20146;-63
2022/12/15 12:08:54;;;;;;;30.40;17.55;;;;;;;;;;5010115;28;20504;-71
2022/12/15 12:11:28;;;;;;;30.52;16.92;;;;;;;;;;5009625;28;20025;-61
2022/12/15 12:14:13;;;;;;;26.13;15.23;;;;;;;;;;5010008;28;20053;-62
2022/12/15 12:16:51;;;;;;;26.70;16.10;;;;;;;;;;5009740;28;20029;-72
2022/12/15 12:19:23;;;;;;;26.58;15.23;;;;;;;;;;5009431;28;20101;-61
2022/12/15 12:21:50;;;;;;;23.90;14.48;;;;;;;;;;5010124;28;20044;-62
2022/12/15 12:24:19;;;;;;;30.67;16.77;;;;;;;;;;5009824;28;20112;-60
2022/12/15 12:26:46;;;;;;;26.33;15.93;;;;;;;;;;5009796;28;20046;-62
2022/12/15 12:29:12;;;;;;;22.83;14.25;;;;;;;;;;5009859;28;20030;-62
2022/12/15 12:31:47;;;;;;;23.77;14.35;;;;;;;;;;5009915;28;20366;-64
2022/12/15 12:34:26;;;;;;;25.52;14.85;;;;;;;;;;5106914;28;20070;-61
2022/12/15 12:36:54;;;;;;;25.08;14.90;;;;;;;;;;5112217;28;20058;-61
2022/12/15 12:39:23;;;;;;;28.63;14.80;;;;;;;;;;5112106;28;20027;-61
2022/12/15 12:41:52;;;;;;;27.17;14.95;;;;;;;;;;5112358;28;20028;-61
2022/12/15 12:44:21;;;;;;;26.38;15.68;;;;;;;;;;5112102;28;20082;-63
2022/12/15 12:46:48;;;;;;;27.00;15.70;;;;;;;;;;5112277;28;20112;-63
2022/12/15 12:49:37;;;;;;;30.13;16.75;;;;;;;;;;5112597;28;20057;-61
2022/12/15 12:52:04;;;;;;;30.30;17.40;;;;;;;;;;5111232;28;20027;-61
2022/12/15 12:54:33;;;;;;;28.05;16.30;;;;;;;;;;5111948;28;20038;-66
2022/12/15 12:57:00;;;;;;;33.75;17.20;;;;;;;;;;5111827;28;20442;-73
2022/12/15 12:59:29;;;;;;;34.42;17.65;;;;;;;;;;5110192;28;20016;-62
2022/12/15 13:01:55;;;;;;;26.00;15.63;;;;;;;;;;5110903;28;20079;-69
2022/12/15 13:04:32;;;;;;;28.10;15.60;;;;;;;;;;5109992;28;20090;-62
2022/12/15 13:07:01;;;;;;;23.25;15.20;;;;;;;;;;5109271;28;20019;-61
2022/12/15 13:09:37;;;;;;;23.02;13.93;;;;;;;;;;5110035;28;20098;-63
2022/12/15 13:12:03;;;;;;;25.38;15.30;;;;;;;;;;5109781;28;20080;-62
2022/12/15 13:14:29;;;;;;;26.17;16.30;;;;;;;;;;5108121;28;20023;-64
2022/12/15 13:17:06;;;;;;;27.45;16.88;;;;;;;;;;5108955;28;20028;-65
2022/12/15 13:19:51;;;;;;;29.75;16.95;;;;;;;;;;5106918;28;20063;-64
2022/12/15 13:22:29;;;;;;;28.00;15.90;;;;;;;;;;5109954;28;20020;-63
2022/12/15 13:24:56;;;;;;;27.00;15.93;;;;;;;;;;5107879;28;20036;-63
2022/12/15 13:27:22;;;;;;;28.25;16.42;;;;;;;;;;5110359;28;20482;-71
2022/12/15 13:29:56;;;;;;;30.85;17.40;;;;;;;;;;5109827;28;20032;-64
2022/12/15 13:32:28;;;;;;;27.08;16.98;;;;;;;;;;5110478;28;20035;-69
2022/12/15 13:34:55;;;;;;;31.38;18.45;;;;;;;;;;5107979;28;20027;-61
2022/12/15 13:37:44;;;;;;;31.30;17.15;;;;;;;;;;5108983;28;20027;-64
2022/12/15 13:40:23;;;;;;;30.38;16.50;;;;;;;;;;5005169;28;20037;-69
2022/12/15 13:42:56;;;;;;;33.92;18.15;;;;;;;;;;5006946;28;20041;-61
2022/12/15 13:45:31;;;;;;;36.45;18.77;;;;;;;;;;5007713;28;20088;-71
2022/12/15 13:47:58;;;;;;;32.20;18.15;;;;;;;;;;5006920;28;20033;-69
2022/12/15 13:50:38;;;;;;;33.05;18.75;;;;;;;;;;5006696;28;20452;-62
2022/12/15 13:53:09;;;;;;;36.38;20.05;;;;;;;;;;5007368;28;20036;-62
2022/12/15 13:55:37;;;;;;;33.80;20.00;;;;;;;;;;5008584;28;20156;-62
2022/12/15 13:58:08;;;;;;;43.17;21.27;;;;;;;;;;5007097;28;20044;-63
2022/12/15 14:00:37;;;;;;;29.38;15.80;;;;;;;;;;5007494;28;20026;-63
2022/12/15 14:03:09;;;;;;;36.15;19.98;;;;;;;;;;5006886;28;20049;-66
2022/12/15 14:05:37;;;;;;;39.70;21.25;;;;;;;;;;5004800;28;20528;-63
2022/12/15 14:08:07;;;;;;;37.78;21.38;;;;;;;;;;5007020;28;20544;-62
2022/12/15 14:10:33;;;;;;;45.95;23.40;;;;;;;;;;5005211;28;20037;-63
2022/12/15 14:13:02;;;;;;;43.28;23.98;;;;;;;;;;5007077;28;20033;-62
2022/12/15 14:15:30;;;;;;;47.08;25.00;;;;;;;;;;5006650;28;20048;-63
2022/12/15 14:17:57;;;;;;;44.90;25.48;;;;;;;;;;5091172;28;20044;-61
2022/12/15 14:20:26;;;;;;;48.42;25.13;;;;;;;;;;5109172;28;20027;-62
2022/12/15 14:22:53;;;;;;;51.72;28.05;;;;;;;;;;5106333;28;20545;-68
2022/12/15 14:25:19;;;;;;;59.78;29.88;;;;;;;;;;5113272;28;20073;-62
2022/12/15 14:27:45;;;;;;;54.38;30.23;;;;;;;;;;5113589;28;20027;-62
2022/12/15 14:30:14;;;;;;;62.35;32.55;;;;;;;;;;5114598;28;20026;-63
2022/12/15 14:32:40;;;;;;;62.60;33.17;;;;;;;;;;5114687;28;20043;-61
2022/12/15 14:35:13;;;;;;;64.70;34.20;;;;;;;;;;5114448;28;20023;-61
2022/12/15 14:37:39;;;;;;;64.00;33.92;;;;;;;;;;5096389;28;20465;-61
2022/12/15 14:40:06;;;;;;;61.30;32.40;;;;;;;;;;5114368;28;20023;-61
2022/12/15 14:42:32;;;;;;;55.50;30.98;;;;;;;;;;5114731;28;20041;-60
2022/12/15 14:44:58;;;;;;;61.33;33.67;;;;;;;;;;5114512;28;20039;-69
2022/12/15 14:47:34;;;;;;;62.33;33.50;;;;;;;;;;5114947;28;20035;-71
2022/12/15 14:50:01;;;;;;;70.43;38.42;;;;;;;;;;5114989;28;20053;-72
2022/12/15 14:52:30;;;;;;;74.05;37.00;;;;;;;;;;5114444;28;20036;-68
2022/12/15 14:54:57;;;;;;;74.35;40.50;;;;;;;;;;5096052;28;20386;-61
2022/12/15 14:57:26;;;;;;;78.57;43.08;;;;;;;;;;5114528;28;20034;-62
2022/12/15 14:59:52;;;;;;;85.35;43.67;;;;;;;;;;5113974;28;20032;-61
2022/12/15 15:02:26;;;;;;;86.40;45.58;;;;;;;;;;5113966;28;20569;-69
2022/12/15 15:05:07;;;;;;;84.57;45.00;;;;;;;;;;5114465;28;20035;-69
2022/12/15 15:07:34;;;;;;;78.38;41.10;;;;;;;;;;5114114;28;20036;-65
2022/12/15 15:10:03;;;;;;;69.45;39.38;;;;;;;;;;5114215;28;20016;-72
2022/12/15 15:12:44;;;;;;;84.28;45.40;;;;;;;;;;5114360;28;20023;-69
2022/12/15 15:15:14;;;;;;;88.78;46.55;;;;;;;;;;5114362;28;20032;-72
2022/12/15 15:17:43;;;;;;;106.70;54.47;;;;;;;;;;5114024;28;20027;-71
2022/12/15 15:20:17;;;;;;;100.63;48.88;;;;;;;;;;5114386;28;20557;-72
2022/12/15 15:22:46;;;;;;;88.05;47.30;;;;;;;;;;5114115;28;20031;-69
2022/12/15 15:25:27;;;;;;;95.25;47.78;;;;;;;;;;5114209;28;20019;-70
2022/12/15 15:28:01;;;;;;;88.22;46.60;;;;;;;;;;5113606;28;20447;-65
2022/12/15 15:30:27;;;;;;;89.68;48.30;;;;;;;;;;5113648;28;20033;-71
2022/12/15 15:32:54;;;;;;;93.32;49.25;;;;;;;;;;5113722;28;20486;-72
2022/12/15 15:35:21;;;;;;;103.10;54.20;;;;;;;;;;5095042;28;20467;-62
2022/12/15 15:37:47;;;;;;;109.78;57.58;;;;;;;;;;5113777;28;20023;-62
2022/12/15 15:40:15;;;;;;;112.00;58.63;;;;;;;;;;5113484;28;20028;-62
2022/12/15 15:42:41;;;;;;;110.85;58.25;;;;;;;;;;5113704;28;20039;-62
2022/12/15 15:45:14;;;;;;;114.40;60.40;;;;;;;;;;5113517;28;20020;-61
2022/12/15 15:47:41;;;;;;;117.80;61.80;;;;;;;;;;5111788;28;20024;-67
2022/12/15 15:50:11;;;;;;;112.35;58.17;;;;;;;;;;5111984;28;20481;-60
2022/12/15 15:52:37;;;;;;;107.32;56.38;;;;;;;;;;5112179;28;20036;-60
2022/12/15 15:55:03;;;;;;;103.13;55.88;;;;;;;;;;5111907;28;20493;-66
2022/12/15 15:57:29;;;;;;;101.78;54.67;;;;;;;;;;5112400;28;20024;-60
2022/12/15 15:59:55;;;;;;;97.97;50.60;;;;;;;;;;5111835;28;20024;-60
2022/12/15 16:02:21;;;;;;;88.38;48.22;;;;;;;;;;5111774;28;20083;-61
2022/12/15 16:04:47;;;;;;;92.55;50.35;;;;;;;;;;5112064;28;20055;-66
2022/12/15 16:07:19;;;;;;;93.38;50.13;;;;;;;;;;5112073;28;20024;-61
2022/12/15 16:09:45;;;;;;;91.20;48.97;;;;;;;;;;5111464;28;20031;-67
2022/12/15 16:12:38;;;;;;;86.88;46.88;;;;;;;;;;5110423;28;20040;-61
2022/12/15 16:15:09;;;;;;;81.13;42.60;;;;;;;;;;5107003;28;20127;-62
2022/12/15 16:17:35;;;;;;;91.30;46.88;;;;;;;;;;5111386;28;20541;-65
2022/12/15 16:20:01;;;;;;;92.63;45.60;;;;;;;;;;5112131;28;20056;-61
2022/12/15 16:22:27;;;;;;;85.25;45.47;;;;;;;;;;5111893;28;20028;-70
2022/12/15 16:24:53;;;;;;;84.63;43.22;;;;;;;;;;5111405;28;20062;-63
2022/12/15 16:27:19;;;;;;;79.15;41.83;;;;;;;;;;5102076;27;20030;-62
2022/12/15 16:29:45;;;;;;;79.57;42.25;;;;;;;;;;5109838;28;20092;-63
2022/12/15 16:32:12;;;;;;;76.07;38.63;;;;;;;;;;5109875;28;20042;-61
2022/12/15 16:34:38;;;;;;;72.57;38.85;;;;;;;;;;5110516;28;20072;-62
2022/12/15 16:37:04;;;;;;;70.97;37.75;;;;;;;;;;5110891;28;20110;-69
2022/12/15 16:39:32;;;;;;;64.75;35.83;;;;;;;;;;5109064;28;20041;-69
2022/12/15 16:41:58;;;;;;;68.22;36.08;;;;;;;;;;5110759;28;20058;-62
2022/12/15 16:44:25;;;;;;;60.42;33.85;;;;;;;;;;5111127;28;20035;-62
2022/12/15 16:46:51;;;;;;;82.13;41.33;;;;;;;;;;5110916;28;20023;-62
2022/12/15 16:49:17;;;;;;;84.25;44.08;;;;;;;;;;5110093;28;20032;-62
2022/12/15 16:51:44;;;;;;;93.45;48.20;;;;;;;;;;5110496;28;20024;-63
2022/12/15 16:54:17;;;;;;;70.35;35.50;;;;;;;;;;5111354;28;20118;-62
2022/12/15 16:56:43;;;;;;;63.35;34.10;;;;;;;;;;5110715;28;20482;-62
2022/12/15 16:59:16;;;;;;;61.45;33.35;;;;;;;;;;5109770;28;20076;-61
2022/12/15 17:01:43;;;;;;;60.35;32.60;;;;;;;;;;5110168;28;20144;-61
2022/12/15 17:04:09;;;;;;;58.75;32.53;;;;;;;;;;5109630;28;20024;-61
2022/12/15 17:06:35;;;;;;;60.17;32.45;;;;;;;;;;5111194;28;20062;-62
2022/12/15 17:09:01;;;;;;;63.42;33.00;;;;;;;;;;5111751;28;20438;-71
2022/12/15 17:11:28;;;;;;;62.50;33.30;;;;;;;;;;5110208;28;20027;-64
2022/12/15 17:13:59;;;;;;;61.40;34.22;;;;;;;;;;5109539;28;20419;-66
2022/12/15 17:16:26;;;;;;;56.63;32.90;;;;;;;;;;5110123;28;20479;-65
2022/12/15 17:18:52;;;;;;;58.60;31.42;;;;;;;;;;5109878;28;20051;-61
2022/12/15 17:21:18;;;;;;;60.38;32.30;;;;;;;;;;5110282;28;20032;-70
2022/12/15 17:23:45;;;;;;;63.45;32.72;;;;;;;;;;5109802;28;20046;-67
2022/12/15 17:26:15;;;;;;;52.72;27.98;;;;;;;;;;5110857;28;20027;-62
2022/12/15 17:28:41;;;;;;;53.80;29.63;;;;;;;;;;5111664;28;20020;-70
2022/12/15 17:31:14;;;;;;;51.35;29.52;;;;;;;;;;5092553;28;20020;-61
2022/12/15 17:33:40;;;;;;;52.45;29.58;;;;;;;;;;5111373;28;20023;-67
2022/12/15 17:36:14;;;;;;;52.55;30.25;;;;;;;;;;5109883;28;20062;-61
2022/12/15 17:38:40;;;;;;;58.72;33.35;;;;;;;;;;5110856;28;20489;-61
2022/12/15 17:41:09;;;;;;;57.28;33.20;;;;;;;;;;5110620;28;20024;-62
2022/12/15 17:43:35;;;;;;;61.65;33.15;;;;;;;;;;5110629;28;20042;-61
2022/12/15 17:46:01;;;;;;;53.67;31.10;;;;;;;;;;5089243;28;20521;-62
2022/12/15 17:48:27;;;;;;;246.65;115.65;;;;;;;;;;5110220;28;20051;-63
2022/12/15 17:50:54;;;;;;;75.38;40.75;;;;;;;;;;5111466;28;20050;-66
2022/12/15 17:53:21;;;;;;;99.95;48.75;;;;;;;;;;5109990;28;20102;-63
2022/12/15 17:55:48;;;;;;;125.05;60.47;;;;;;;;;;5091262;28;20599;-62
2022/12/15 17:58:25;;;;;;;109.25;55.35;;;;;;;;;;5109766;28;20019;-63
2022/12/15 18:00:52;;;;;;;97.30;50.50;;;;;;;;;;5109247;28;20027;-62
2022/12/15 18:03:19;;;;;;;90.65;46.65;;;;;;;;;;5106581;28;20097;-66
2022/12/15 18:05:50;;;;;;;118.53;59.05;;;;;;;;;;5109960;28;20063;-61
2022/12/15 18:08:17;;;;;;;117.30;61.28;;;;;;;;;;5110850;28;20028;-61
2022/12/15 18:10:43;;;;;;;98.07;49.42;;;;;;;;;;5108293;28;20023;-68
2022/12/15 18:13:17;;;;;;;77.88;39.45;;;;;;;;;;5110719;28;20023;-61
2022/12/15 18:15:43;;;;;;;82.90;43.28;;;;;;;;;;5110503;28;20067;-62
2022/12/15 18:18:09;;;;;;;83.43;43.67;;;;;;;;;;5110356;28;20034;-65
2022/12/15 18:20:36;;;;;;;120.38;60.63;;;;;;;;;;5109107;28;20035;-62
2022/12/15 18:23:02;;;;;;;90.38;46.95;;;;;;;;;;5108770;28;20126;-70
2022/12/15 18:25:29;;;;;;;85.03;44.85;;;;;;;;;;5109148;28;20022;-62
2022/12/15 18:27:57;;;;;;;86.75;46.30;;;;;;;;;;5110615;28;20022;-71
2022/12/15 18:30:24;;;;;;;86.75;46.20;;;;;;;;;;5110862;28;20028;-61
2022/12/15 18:32:53;;;;;;;82.35;46.10;;;;;;;;;;5110333;28;20036;-65
2022/12/15 18:35:26;;;;;;;91.20;47.28;;;;;;;;;;5110823;28;20051;-67
2022/12/15 18:37:53;;;;;;;107.13;55.50;;;;;;;;;;5111127;28;20038;-61
2022/12/15 18:40:20;;;;;;;133.45;68.97;;;;;;;;;;5110677;28;20073;-63
2022/12/15 18:42:47;;;;;;;140.77;72.75;;;;;;;;;;5110828;28;20036;-61
2022/12/15 18:45:18;;;;;;;162.48;84.15;;;;;;;;;;5109984;28;20016;-68
2022/12/15 18:47:44;;;;;;;133.27;69.43;;;;;;;;;;5105603;28;20745;-61
2022/12/15 18:50:16;;;;;;;134.68;69.82;;;;;;;;;;5121373;28;20497;-61
2022/12/15 18:52:42;;;;;;;79.10;43.15;;;;;;;;;;5115234;28;20027;-61
2022/12/15 18:55:16;;;;;;;129.70;67.35;;;;;;;;;;5110105;28;20168;-62
2022/12/15 18:57:42;;;;;;;217.90;99.13;;;;;;;;;;5109907;28;20123;-61
2022/12/15 19:00:14;;;;;;;115.60;60.00;;;;;;;;;;5110880;28;20024;-64
2022/12/15 19:02:41;;;;;;;112.15;58.15;;;;;;;;;;5108705;28;20479;-60
2022/12/15 19:05:26;;;;;;;144.07;73.95;;;;;;;;;;5108109;28;20483;-60
2022/12/15 19:07:52;;;;;;;158.02;82.05;;;;;;;;;;5108541;28;20122;-61
2022/12/15 19:10:18;;;;;;;182.52;92.70;;;;;;;;;;5110343;28;20106;-64
2022/12/15 19:12:44;;;;;;;174.00;83.55;;;;;;;;;;5111737;28;20059;-61
2022/12/15 19:15:15;;;;;;;165.90;82.50;;;;;;;;;;5112603;28;20767;-61
2022/12/15 19:23:11;;;;;;;96.85;52.20;;;;;;;;;;5112964;28;20037;-67
2022/12/15 19:25:38;;;;;;;104.30;54.42;;;;;;;;;;5113369;28;20051;-62
2022/12/15 19:28:06;;;;;;;108.00;57.97;;;;;;;;;;5113027;28;20027;-61
2022/12/15 19:30:33;;;;;;;88.57;47.67;;;;;;;;;;5113711;28;20077;-65
2022/12/15 19:32:59;;;;;;;79.55;45.63;;;;;;;;;;5094915;28;20093;-64
2022/12/15 19:35:26;;;;;;;79.82;42.30;;;;;;;;;;5113616;28;20020;-65
2022/12/15 19:37:54;;;;;;;74.53;40.58;;;;;;;;;;5105819;27;20047;-59
2022/12/15 19:40:21;;;;;;;72.45;38.60;;;;;;;;;;5111627;28;20098;-61
2022/12/15 19:42:48;;;;;;;68.25;38.10;;;;;;;;;;5113060;28;20032;-61
2022/12/15 19:45:17;;;;;;;75.57;42.10;;;;;;;;;;5105940;28;20459;-66
2022/12/15 19:47:43;;;;;;;76.72;43.60;;;;;;;;;;5111841;28;20070;-61
2022/12/15 19:50:16;;;;;;;77.60;41.28;;;;;;;;;;5111145;28;20027;-62
2022/12/15 19:52:43;;;;;;;77.18;42.92;;;;;;;;;;5112857;28;20028;-63
2022/12/15 19:55:13;;;;;;;78.57;44.15;;;;;;;;;;5111519;28;20374;-67
2022/12/15 19:57:39;;;;;;;84.45;45.65;;;;;;;;;;5110813;28;20028;-62
2022/12/15 20:00:15;;;;;;;83.07;45.78;;;;;;;;;;5111263;28;20031;-66
2022/12/15 20:02:41;;;;;;;114.10;60.00;;;;;;;;;;5111496;28;20055;-69
2022/12/15 20:05:07;;;;;;;96.70;50.42;;;;;;;;;;5112905;28;20030;-62
2022/12/15 20:07:33;;;;;;;82.07;42.45;;;;;;;;;;5112583;28;20027;-61
2022/12/15 20:10:00;;;;;;;84.13;45.20;;;;;;;;;;5112471;28;20102;-61
2022/12/15 20:12:27;;;;;;;84.95;43.78;;;;;;;;;;5112289;28;20024;-61
2022/12/15 20:14:53;;;;;;;74.03;40.90;;;;;;;;;;5112941;28;20091;-61
2022/12/15 20:17:19;;;;;;;71.93;40.25;;;;;;;;;;5111174;28;20047;-67
2022/12/15 20:19:45;;;;;;;66.68;38.67;;;;;;;;;;5112349;28;20027;-63
2022/12/15 20:22:15;;;;;;;60.70;35.08;;;;;;;;;;5130759;27;20099;-61
2022/12/15 20:24:42;;;;;;;61.70;33.72;;;;;;;;;;5133374;27;20031;-61
2022/12/15 20:27:12;;;;;;;67.22;34.92;;;;;;;;;;5133429;27;20023;-62
2022/12/15 20:29:38;;;;;;;55.40;31.95;;;;;;;;;;5133609;27;20497;-62
2022/12/15 20:32:15;;;;;;;61.40;33.00;;;;;;;;;;5133172;27;20038;-63
2022/12/15 20:34:41;;;;;;;57.80;33.65;;;;;;;;;;5133353;27;20038;-60
2022/12/15 20:37:27;;;;;;;69.43;36.95;;;;;;;;;;5112101;27;20035;-60